sensor_id;sensor_type;location;lat;lon;timestamp;P1;durP1;ratioP1;P2;durP2;ratioP2
27265;SDS011;14766;51.380;13.762;2024-01-15T00:01:19;18.13;;;9.60;;
27265;SDS011;14766;51.380;13.762;2024-01-15T00:03:47;20.40;;;10.77;;
27265;SDS011;14766;51.380;13.762;2024-01-15T00:06:14;20.00;;;10.20;;
27265;SDS011;14766;51.380;13.762;2024-01-15T00:08:41;19.45;;;9.70;;
27265;SDS011;14766;51.380;13.762;2024-01-15T00:11:08;18.38;;;9.63;;
27265;SDS011;14766;51.380;13.762;2024-01-15T00:13:36;18.02;;;9.77;;
27265;SDS011;14766;51.380;13.762;2024-01-15T00:16:06;17.70;;;9.25;;
27265;SDS011;14766;51.380;13.762;2024-01-15T00:18:33;17.27;;;9.40;;
27265;SDS011;14766;51.380;13.762;2024-01-15T00:21:00;20.27;;;9.70;;
27265;SDS011;14766;51.380;13.762;2024-01-15T00:23:28;18.40;;;9.63;;
27265;SDS011;14766;51.380;13.762;2024-01-15T00:25:55;17.25;;;9.98;;
27265;SDS011;14766;51.380;13.762;2024-01-15T00:28:23;15.38;;;8.80;;
27265;SDS011;14766;51.380;13.762;2024-01-15T00:30:50;20.52;;;9.50;;
27265;SDS011;14766;51.380;13.762;2024-01-15T00:33:17;16.27;;;9.05;;
27265;SDS011;14766;51.380;13.762;2024-01-15T00:35:44;15.18;;;9.02;;
27265;SDS011;14766;51.380;13.762;2024-01-15T00:38:12;17.33;;;9.20;;
27265;SDS011;14766;51.380;13.762;2024-01-15T00:40:39;16.77;;;8.65;;
27265;SDS011;14766;51.380;13.762;2024-01-15T00:43:06;14.10;;;8.23;;
27265;SDS011;14766;51.380;13.762;2024-01-15T00:45:34;15.20;;;8.02;;
27265;SDS011;14766;51.380;13.762;2024-01-15T00:48:01;14.02;;;7.78;;
27265;SDS011;14766;51.380;13.762;2024-01-15T00:50:29;15.35;;;8.55;;
27265;SDS011;14766;51.380;13.762;2024-01-15T00:52:57;16.85;;;8.48;;
27265;SDS011;14766;51.380;13.762;2024-01-15T00:55:26;16.85;;;8.35;;
27265;SDS011;14766;51.380;13.762;2024-01-15T00:57:55;14.95;;;8.43;;
27265;SDS011;14766;51.380;13.762;2024-01-15T01:00:22;14.32;;;7.90;;
27265;SDS011;14766;51.380;13.762;2024-01-15T01:02:49;13.43;;;7.75;;
27265;SDS011;14766;51.380;13.762;2024-01-15T01:05:16;13.63;;;7.85;;
27265;SDS011;14766;51.380;13.762;2024-01-15T01:07:43;13.90;;;8.93;;
27265;SDS011;14766;51.380;13.762;2024-01-15T01:10:10;14.63;;;8.10;;
27265;SDS011;14766;51.380;13.762;2024-01-15T01:12:37;13.30;;;7.53;;
27265;SDS011;14766;51.380;13.762;2024-01-15T01:15:05;15.65;;;8.70;;
27265;SDS011;14766;51.380;13.762;2024-01-15T01:17:32;14.07;;;7.53;;
27265;SDS011;14766;51.380;13.762;2024-01-15T01:19:59;12.88;;;8.30;;
27265;SDS011;14766;51.380;13.762;2024-01-15T01:22:31;15.10;;;8.45;;
27265;SDS011;14766;51.380;13.762;2024-01-15T01:24:58;15.02;;;8.18;;
27265;SDS011;14766;51.380;13.762;2024-01-15T01:27:25;12.75;;;8.05;;
27265;SDS011;14766;51.380;13.762;2024-01-15T01:29:52;13.13;;;7.80;;
27265;SDS011;14766;51.380;13.762;2024-01-15T01:32:19;15.05;;;7.82;;
27265;SDS011;14766;51.380;13.762;2024-01-15T01:34:46;12.68;;;7.80;;
27265;SDS011;14766;51.380;13.762;2024-01-15T01:37:14;15.80;;;9.07;;
27265;SDS011;14766;51.380;13.762;2024-01-15T01:39:42;14.27;;;8.60;;
27265;SDS011;14766;51.380;13.762;2024-01-15T01:42:10;15.48;;;9.15;;
27265;SDS011;14766;51.380;13.762;2024-01-15T01:44:38;13.98;;;8.90;;
27265;SDS011;14766;51.380;13.762;2024-01-15T01:47:05;15.65;;;8.52;;
27265;SDS011;14766;51.380;13.762;2024-01-15T01:49:33;16.75;;;9.20;;
27265;SDS011;14766;51.380;13.762;2024-01-15T01:52:04;16.27;;;8.63;;
27265;SDS011;14766;51.380;13.762;2024-01-15T01:54:36;14.88;;;7.80;;
27265;SDS011;14766;51.380;13.762;2024-01-15T01:57:04;16.13;;;8.15;;
27265;SDS011;14766;51.380;13.762;2024-01-15T01:59:34;14.82;;;8.35;;
27265;SDS011;14766;51.380;13.762;2024-01-15T02:02:02;12.02;;;7.72;;
27265;SDS011;14766;51.380;13.762;2024-01-15T02:04:31;13.30;;;7.53;;
27265;SDS011;14766;51.380;13.762;2024-01-15T02:06:59;13.70;;;8.00;;
27265;SDS011;14766;51.380;13.762;2024-01-15T02:09:27;14.77;;;8.68;;
27265;SDS011;14766;51.380;13.762;2024-01-15T02:11:55;14.07;;;7.97;;
27265;SDS011;14766;51.380;13.762;2024-01-15T02:14:22;13.27;;;7.82;;
27265;SDS011;14766;51.380;13.762;2024-01-15T02:16:49;15.27;;;8.32;;
27265;SDS011;14766;51.380;13.762;2024-01-15T02:19:17;12.57;;;8.23;;
27265;SDS011;14766;51.380;13.762;2024-01-15T02:21:45;13.35;;;7.10;;
27265;SDS011;14766;51.380;13.762;2024-01-15T02:24:12;12.13;;;7.28;;
27265;SDS011;14766;51.380;13.762;2024-01-15T02:26:39;14.43;;;8.05;;
27265;SDS011;14766;51.380;13.762;2024-01-15T02:29:07;14.98;;;8.95;;
27265;SDS011;14766;51.380;13.762;2024-01-15T02:31:37;17.42;;;8.70;;
27265;SDS011;14766;51.380;13.762;2024-01-15T02:34:04;16.55;;;9.25;;
27265;SDS011;14766;51.380;13.762;2024-01-15T02:36:32;14.82;;;8.43;;
27265;SDS011;14766;51.380;13.762;2024-01-15T02:38:59;15.38;;;8.85;;
27265;SDS011;14766;51.380;13.762;2024-01-15T02:41:26;14.43;;;8.52;;
27265;SDS011;14766;51.380;13.762;2024-01-15T02:43:53;13.82;;;7.80;;
27265;SDS011;14766;51.380;13.762;2024-01-15T02:46:20;16.27;;;8.35;;
27265;SDS011;14766;51.380;13.762;2024-01-15T02:48:47;15.48;;;8.48;;
27265;SDS011;14766;51.380;13.762;2024-01-15T02:51:15;14.93;;;9.10;;
27265;SDS011;14766;51.380;13.762;2024-01-15T02:53:44;14.43;;;8.75;;
27265;SDS011;14766;51.380;13.762;2024-01-15T02:56:13;14.50;;;8.80;;
27265;SDS011;14766;51.380;13.762;2024-01-15T02:58:40;13.85;;;8.27;;
27265;SDS011;14766;51.380;13.762;2024-01-15T03:01:07;13.13;;;7.75;;
27265;SDS011;14766;51.380;13.762;2024-01-15T03:03:34;16.00;;;8.43;;
27265;SDS011;14766;51.380;13.762;2024-01-15T03:06:02;14.30;;;7.95;;
27265;SDS011;14766;51.380;13.762;2024-01-15T03:08:30;14.60;;;7.88;;
27265;SDS011;14766;51.380;13.762;2024-01-15T03:10:57;17.55;;;9.07;;
27265;SDS011;14766;51.380;13.762;2024-01-15T03:13:25;13.85;;;8.27;;
27265;SDS011;14766;51.380;13.762;2024-01-15T03:15:52;13.30;;;7.93;;
27265;SDS011;14766;51.380;13.762;2024-01-15T03:18:19;13.50;;;7.90;;
27265;SDS011;14766;51.380;13.762;2024-01-15T03:20:46;15.07;;;8.45;;
27265;SDS011;14766;51.380;13.762;2024-01-15T03:23:14;13.45;;;8.57;;
27265;SDS011;14766;51.380;13.762;2024-01-15T03:25:41;13.38;;;8.45;;
27265;SDS011;14766;51.380;13.762;2024-01-15T03:28:08;14.73;;;7.80;;
27265;SDS011;14766;51.380;13.762;2024-01-15T03:30:37;16.48;;;8.00;;
27265;SDS011;14766;51.380;13.762;2024-01-15T03:33:04;14.80;;;8.18;;
27265;SDS011;14766;51.380;13.762;2024-01-15T03:35:31;14.07;;;8.30;;
27265;SDS011;14766;51.380;13.762;2024-01-15T03:37:58;14.90;;;8.38;;
27265;SDS011;14766;51.380;13.762;2024-01-15T03:40:28;15.85;;;8.35;;
27265;SDS011;14766;51.380;13.762;2024-01-15T03:42:57;13.90;;;8.25;;
27265;SDS011;14766;51.380;13.762;2024-01-15T03:45:27;14.05;;;7.90;;
27265;SDS011;14766;51.380;13.762;2024-01-15T03:47:57;14.07;;;7.80;;
27265;SDS011;14766;51.380;13.762;2024-01-15T03:50:24;13.27;;;7.25;;
27265;SDS011;14766;51.380;13.762;2024-01-15T03:52:51;13.77;;;8.30;;
27265;SDS011;14766;51.380;13.762;2024-01-15T03:55:18;13.23;;;8.13;;
27265;SDS011;14766;51.380;13.762;2024-01-15T03:57:47;15.00;;;7.78;;
27265;SDS011;14766;51.380;13.762;2024-01-15T04:00:14;16.95;;;8.25;;
27265;SDS011;14766;51.380;13.762;2024-01-15T04:02:44;16.30;;;8.45;;
27265;SDS011;14766;51.380;13.762;2024-01-15T04:05:11;15.40;;;8.82;;
27265;SDS011;14766;51.380;13.762;2024-01-15T04:07:38;16.42;;;8.93;;
27265;SDS011;14766;51.380;13.762;2024-01-15T04:10:05;14.60;;;8.77;;
27265;SDS011;14766;51.380;13.762;2024-01-15T04:12:32;15.52;;;8.38;;
27265;SDS011;14766;51.380;13.762;2024-01-15T04:14:59;17.35;;;9.02;;
27265;SDS011;14766;51.380;13.762;2024-01-15T04:17:27;15.43;;;8.57;;
27265;SDS011;14766;51.380;13.762;2024-01-15T04:19:54;16.77;;;8.70;;
27265;SDS011;14766;51.380;13.762;2024-01-15T04:22:22;16.38;;;8.85;;
27265;SDS011;14766;51.380;13.762;2024-01-15T04:24:49;16.27;;;8.68;;
27265;SDS011;14766;51.380;13.762;2024-01-15T04:27:16;16.17;;;8.30;;
27265;SDS011;14766;51.380;13.762;2024-01-15T04:29:44;14.32;;;7.63;;
27265;SDS011;14766;51.380;13.762;2024-01-15T04:32:11;15.63;;;8.18;;
27265;SDS011;14766;51.380;13.762;2024-01-15T04:34:39;14.70;;;8.02;;
27265;SDS011;14766;51.380;13.762;2024-01-15T04:37:06;12.23;;;7.20;;
27265;SDS011;14766;51.380;13.762;2024-01-15T04:39:33;13.52;;;7.63;;
27265;SDS011;14766;51.380;13.762;2024-01-15T04:42:00;13.73;;;8.30;;
27265;SDS011;14766;51.380;13.762;2024-01-15T04:44:28;16.25;;;8.18;;
27265;SDS011;14766;51.380;13.762;2024-01-15T04:46:55;17.40;;;8.68;;
27265;SDS011;14766;51.380;13.762;2024-01-15T04:49:22;15.35;;;8.10;;
27265;SDS011;14766;51.380;13.762;2024-01-15T04:51:53;14.07;;;8.10;;
27265;SDS011;14766;51.380;13.762;2024-01-15T04:54:20;13.27;;;7.75;;
27265;SDS011;14766;51.380;13.762;2024-01-15T04:56:47;13.25;;;7.50;;
27265;SDS011;14766;51.380;13.762;2024-01-15T04:59:14;14.50;;;8.50;;
27265;SDS011;14766;51.380;13.762;2024-01-15T05:01:41;12.23;;;7.13;;
27265;SDS011;14766;51.380;13.762;2024-01-15T05:04:09;15.45;;;7.80;;
27265;SDS011;14766;51.380;13.762;2024-01-15T05:06:38;13.07;;;6.95;;
27265;SDS011;14766;51.380;13.762;2024-01-15T05:09:06;11.93;;;6.82;;
27265;SDS011;14766;51.380;13.762;2024-01-15T05:11:33;15.20;;;7.65;;
27265;SDS011;14766;51.380;13.762;2024-01-15T05:14:00;15.45;;;8.10;;
27265;SDS011;14766;51.380;13.762;2024-01-15T05:16:27;15.05;;;8.88;;
27265;SDS011;14766;51.380;13.762;2024-01-15T05:18:54;18.05;;;9.07;;
27265;SDS011;14766;51.380;13.762;2024-01-15T05:21:21;16.77;;;8.88;;
27265;SDS011;14766;51.380;13.762;2024-01-15T05:23:48;18.58;;;9.25;;
27265;SDS011;14766;51.380;13.762;2024-01-15T05:26:16;18.17;;;8.93;;
27265;SDS011;14766;51.380;13.762;2024-01-15T05:28:43;16.75;;;9.15;;
27265;SDS011;14766;51.380;13.762;2024-01-15T05:31:10;14.88;;;8.57;;
27265;SDS011;14766;51.380;13.762;2024-01-15T05:33:38;17.30;;;9.05;;
27265;SDS011;14766;51.380;13.762;2024-01-15T05:36:05;19.45;;;9.48;;
27265;SDS011;14766;51.380;13.762;2024-01-15T05:38:33;17.83;;;9.25;;
27265;SDS011;14766;51.380;13.762;2024-01-15T05:41:01;20.05;;;9.90;;
27265;SDS011;14766;51.380;13.762;2024-01-15T05:43:29;19.42;;;9.60;;
27265;SDS011;14766;51.380;13.762;2024-01-15T05:45:56;15.57;;;8.68;;
27265;SDS011;14766;51.380;13.762;2024-01-15T05:48:25;15.68;;;8.30;;
27265;SDS011;14766;51.380;13.762;2024-01-15T05:50:52;15.50;;;8.73;;
27265;SDS011;14766;51.380;13.762;2024-01-15T05:53:19;16.90;;;9.23;;
27265;SDS011;14766;51.380;13.762;2024-01-15T05:55:46;19.67;;;9.40;;
27265;SDS011;14766;51.380;13.762;2024-01-15T05:58:13;20.10;;;9.60;;
27265;SDS011;14766;51.380;13.762;2024-01-15T06:00:40;16.65;;;9.23;;
27265;SDS011;14766;51.380;13.762;2024-01-15T06:03:10;20.45;;;9.18;;
27265;SDS011;14766;51.380;13.762;2024-01-15T06:05:37;15.75;;;8.82;;
27265;SDS011;14766;51.380;13.762;2024-01-15T06:08:04;16.98;;;8.60;;
27265;SDS011;14766;51.380;13.762;2024-01-15T06:10:31;16.20;;;7.97;;
27265;SDS011;14766;51.380;13.762;2024-01-15T06:12:58;17.08;;;8.73;;
27265;SDS011;14766;51.380;13.762;2024-01-15T06:15:25;17.95;;;8.95;;
27265;SDS011;14766;51.380;13.762;2024-01-15T06:17:53;17.30;;;8.48;;
27265;SDS011;14766;51.380;13.762;2024-01-15T06:20:21;18.15;;;8.38;;
27265;SDS011;14766;51.380;13.762;2024-01-15T06:22:49;17.30;;;9.38;;
27265;SDS011;14766;51.380;13.762;2024-01-15T06:25:16;18.33;;;9.55;;
27265;SDS011;14766;51.380;13.762;2024-01-15T06:27:43;17.92;;;8.68;;
27265;SDS011;14766;51.380;13.762;2024-01-15T06:30:10;16.08;;;8.50;;
27265;SDS011;14766;51.380;13.762;2024-01-15T06:32:38;18.42;;;8.80;;
27265;SDS011;14766;51.380;13.762;2024-01-15T06:35:06;15.40;;;7.88;;
27265;SDS011;14766;51.380;13.762;2024-01-15T06:37:33;18.60;;;9.20;;
27265;SDS011;14766;51.380;13.762;2024-01-15T06:40:02;15.80;;;8.38;;
27265;SDS011;14766;51.380;13.762;2024-01-15T06:42:30;15.40;;;8.05;;
27265;SDS011;14766;51.380;13.762;2024-01-15T06:44:57;16.55;;;8.02;;
27265;SDS011;14766;51.380;13.762;2024-01-15T06:47:24;16.83;;;8.13;;
27265;SDS011;14766;51.380;13.762;2024-01-15T06:49:52;15.77;;;8.15;;
27265;SDS011;14766;51.380;13.762;2024-01-15T06:52:20;14.27;;;7.82;;
27265;SDS011;14766;51.380;13.762;2024-01-15T06:54:47;14.68;;;7.68;;
27265;SDS011;14766;51.380;13.762;2024-01-15T06:57:14;15.48;;;8.18;;
27265;SDS011;14766;51.380;13.762;2024-01-15T06:59:41;17.65;;;7.95;;
27265;SDS011;14766;51.380;13.762;2024-01-15T07:02:10;16.92;;;8.15;;
27265;SDS011;14766;51.380;13.762;2024-01-15T07:04:38;16.08;;;7.47;;
27265;SDS011;14766;51.380;13.762;2024-01-15T07:07:09;19.08;;;8.48;;
27265;SDS011;14766;51.380;13.762;2024-01-15T07:09:37;15.77;;;8.10;;
27265;SDS011;14766;51.380;13.762;2024-01-15T07:12:04;14.95;;;7.95;;
27265;SDS011;14766;51.380;13.762;2024-01-15T07:14:31;16.63;;;7.40;;
27265;SDS011;14766;51.380;13.762;2024-01-15T07:16:58;16.27;;;7.10;;
27265;SDS011;14766;51.380;13.762;2024-01-15T07:19:25;12.52;;;6.57;;
27265;SDS011;14766;51.380;13.762;2024-01-15T07:21:53;12.27;;;6.22;;
27265;SDS011;14766;51.380;13.762;2024-01-15T07:24:23;12.55;;;7.22;;
27265;SDS011;14766;51.380;13.762;2024-01-15T07:26:50;13.00;;;6.18;;
27265;SDS011;14766;51.380;13.762;2024-01-15T07:29:17;12.35;;;5.90;;
27265;SDS011;14766;51.380;13.762;2024-01-15T07:31:49;11.80;;;5.85;;
27265;SDS011;14766;51.380;13.762;2024-01-15T07:34:17;9.77;;;5.43;;
27265;SDS011;14766;51.380;13.762;2024-01-15T07:36:44;10.90;;;5.82;;
27265;SDS011;14766;51.380;13.762;2024-01-15T07:39:12;12.10;;;6.18;;
27265;SDS011;14766;51.380;13.762;2024-01-15T07:41:41;13.63;;;6.15;;
27265;SDS011;14766;51.380;13.762;2024-01-15T07:44:09;12.85;;;6.63;;
27265;SDS011;14766;51.380;13.762;2024-01-15T07:46:36;12.43;;;6.72;;
27265;SDS011;14766;51.380;13.762;2024-01-15T07:49:03;11.85;;;5.75;;
27265;SDS011;14766;51.380;13.762;2024-01-15T07:51:33;14.48;;;6.38;;
27265;SDS011;14766;51.380;13.762;2024-01-15T07:54:06;13.70;;;6.68;;
27265;SDS011;14766;51.380;13.762;2024-01-15T07:56:34;12.48;;;6.13;;
27265;SDS011;14766;51.380;13.762;2024-01-15T07:59:04;12.52;;;6.68;;
27265;SDS011;14766;51.380;13.762;2024-01-15T08:01:34;14.20;;;7.30;;
27265;SDS011;14766;51.380;13.762;2024-01-15T08:04:01;11.88;;;6.22;;
27265;SDS011;14766;51.380;13.762;2024-01-15T08:06:28;11.57;;;6.40;;
27265;SDS011;14766;51.380;13.762;2024-01-15T08:08:55;12.40;;;6.53;;
27265;SDS011;14766;51.380;13.762;2024-01-15T08:11:22;14.27;;;6.80;;
27265;SDS011;14766;51.380;13.762;2024-01-15T08:13:49;14.55;;;7.90;;
27265;SDS011;14766;51.380;13.762;2024-01-15T08:16:17;16.83;;;9.10;;
27265;SDS011;14766;51.380;13.762;2024-01-15T08:18:45;14.07;;;7.53;;
27265;SDS011;14766;51.380;13.762;2024-01-15T08:21:12;12.70;;;6.90;;
27265;SDS011;14766;51.380;13.762;2024-01-15T08:23:41;11.18;;;6.15;;
27265;SDS011;14766;51.380;13.762;2024-01-15T08:26:08;13.65;;;6.18;;
27265;SDS011;14766;51.380;13.762;2024-01-15T08:28:37;12.50;;;6.80;;
27265;SDS011;14766;51.380;13.762;2024-01-15T08:31:05;13.45;;;7.43;;
27265;SDS011;14766;51.380;13.762;2024-01-15T08:33:32;12.93;;;6.47;;
27265;SDS011;14766;51.380;13.762;2024-01-15T08:36:02;12.93;;;6.03;;
27265;SDS011;14766;51.380;13.762;2024-01-15T08:38:30;13.52;;;6.20;;
27265;SDS011;14766;51.380;13.762;2024-01-15T08:40:56;15.32;;;7.60;;
27265;SDS011;14766;51.380;13.762;2024-01-15T08:43:27;16.50;;;7.53;;
27265;SDS011;14766;51.380;13.762;2024-01-15T08:45:54;14.35;;;7.47;;
27265;SDS011;14766;51.380;13.762;2024-01-15T08:48:21;15.43;;;7.68;;
27265;SDS011;14766;51.380;13.762;2024-01-15T08:50:48;13.68;;;7.22;;
27265;SDS011;14766;51.380;13.762;2024-01-15T08:53:17;12.50;;;6.93;;
27265;SDS011;14766;51.380;13.762;2024-01-15T08:55:45;11.48;;;6.50;;
27265;SDS011;14766;51.380;13.762;2024-01-15T08:58:12;15.07;;;7.07;;
27265;SDS011;14766;51.380;13.762;2024-01-15T09:00:39;12.88;;;7.00;;
27265;SDS011;14766;51.380;13.762;2024-01-15T09:03:06;14.45;;;6.35;;
27265;SDS011;14766;51.380;13.762;2024-01-15T09:05:35;15.45;;;6.75;;
27265;SDS011;14766;51.380;13.762;2024-01-15T09:08:02;15.20;;;6.75;;
27265;SDS011;14766;51.380;13.762;2024-01-15T09:10:29;10.25;;;6.32;;
27265;SDS011;14766;51.380;13.762;2024-01-15T09:12:56;15.98;;;7.20;;
27265;SDS011;14766;51.380;13.762;2024-01-15T09:15:23;11.95;;;6.55;;
27265;SDS011;14766;51.380;13.762;2024-01-15T09:17:50;13.35;;;6.82;;
27265;SDS011;14766;51.380;13.762;2024-01-15T09:20:18;10.95;;;6.03;;
27265;SDS011;14766;51.380;13.762;2024-01-15T09:22:45;11.82;;;7.20;;
27265;SDS011;14766;51.380;13.762;2024-01-15T09:25:12;14.68;;;6.63;;
27265;SDS011;14766;51.380;13.762;2024-01-15T09:27:39;12.25;;;6.15;;
27265;SDS011;14766;51.380;13.762;2024-01-15T09:30:06;12.57;;;6.20;;
27265;SDS011;14766;51.380;13.762;2024-01-15T09:32:35;13.25;;;6.22;;
27265;SDS011;14766;51.380;13.762;2024-01-15T09:35:02;14.13;;;6.60;;
27265;SDS011;14766;51.380;13.762;2024-01-15T09:37:29;13.02;;;6.97;;
27265;SDS011;14766;51.380;13.762;2024-01-15T09:40:13;14.18;;;7.03;;
27265;SDS011;14766;51.380;13.762;2024-01-15T09:42:43;9.70;;;6.00;;
27265;SDS011;14766;51.380;13.762;2024-01-15T09:45:12;11.85;;;6.00;;
27265;SDS011;14766;51.380;13.762;2024-01-15T09:47:40;12.88;;;6.53;;
27265;SDS011;14766;51.380;13.762;2024-01-15T09:50:12;10.50;;;6.38;;
27265;SDS011;14766;51.380;13.762;2024-01-15T09:52:43;11.38;;;5.57;;
27265;SDS011;14766;51.380;13.762;2024-01-15T09:55:11;12.07;;;5.47;;
27265;SDS011;14766;51.380;13.762;2024-01-15T09:57:46;14.48;;;6.97;;
27265;SDS011;14766;51.380;13.762;2024-01-15T10:00:14;12.98;;;6.43;;
27265;SDS011;14766;51.380;13.762;2024-01-15T10:02:43;13.18;;;5.50;;
27265;SDS011;14766;51.380;13.762;2024-01-15T10:05:11;10.27;;;5.80;;
27265;SDS011;14766;51.380;13.762;2024-01-15T10:07:38;12.18;;;5.95;;
27265;SDS011;14766;51.380;13.762;2024-01-15T10:10:06;10.68;;;5.65;;
27265;SDS011;14766;51.380;13.762;2024-01-15T10:12:34;9.13;;;5.25;;
27265;SDS011;14766;51.380;13.762;2024-01-15T10:15:02;11.30;;;5.40;;
27265;SDS011;14766;51.380;13.762;2024-01-15T10:17:30;12.82;;;6.15;;
27265;SDS011;14766;51.380;13.762;2024-01-15T10:19:58;14.88;;;5.95;;
27265;SDS011;14766;51.380;13.762;2024-01-15T10:22:25;12.93;;;6.07;;
27265;SDS011;14766;51.380;13.762;2024-01-15T10:24:53;10.98;;;5.35;;
27265;SDS011;14766;51.380;13.762;2024-01-15T10:27:20;8.90;;;5.13;;
27265;SDS011;14766;51.380;13.762;2024-01-15T10:29:47;11.40;;;5.80;;
27265;SDS011;14766;51.380;13.762;2024-01-15T10:32:14;10.45;;;5.60;;
27265;SDS011;14766;51.380;13.762;2024-01-15T10:34:41;10.15;;;5.22;;
27265;SDS011;14766;51.380;13.762;2024-01-15T10:37:14;14.23;;;5.90;;
27265;SDS011;14766;51.380;13.762;2024-01-15T10:39:42;11.55;;;5.28;;
27265;SDS011;14766;51.380;13.762;2024-01-15T10:42:11;11.38;;;5.20;;
27265;SDS011;14766;51.380;13.762;2024-01-15T10:44:38;9.43;;;5.25;;
27265;SDS011;14766;51.380;13.762;2024-01-15T10:47:05;8.95;;;4.88;;
27265;SDS011;14766;51.380;13.762;2024-01-15T10:49:33;11.05;;;6.60;;
27265;SDS011;14766;51.380;13.762;2024-01-15T10:52:00;9.70;;;5.38;;
27265;SDS011;14766;51.380;13.762;2024-01-15T10:54:28;11.38;;;5.60;;
27265;SDS011;14766;51.380;13.762;2024-01-15T10:56:56;11.32;;;5.55;;
27265;SDS011;14766;51.380;13.762;2024-01-15T10:59:23;11.52;;;5.55;;
27265;SDS011;14766;51.380;13.762;2024-01-15T11:01:52;12.07;;;5.53;;
27265;SDS011;14766;51.380;13.762;2024-01-15T11:04:22;8.13;;;4.90;;
27265;SDS011;14766;51.380;13.762;2024-01-15T11:06:51;9.60;;;4.75;;
27265;SDS011;14766;51.380;13.762;2024-01-15T11:09:23;9.57;;;5.05;;
27265;SDS011;14766;51.380;13.762;2024-01-15T11:12:11;6.97;;;4.68;;
27265;SDS011;14766;51.380;13.762;2024-01-15T11:14:46;11.38;;;5.28;;
27265;SDS011;14766;51.380;13.762;2024-01-15T11:17:14;7.28;;;4.20;;
27265;SDS011;14766;51.380;13.762;2024-01-15T11:19:46;8.68;;;4.47;;
27265;SDS011;14766;51.380;13.762;2024-01-15T11:24:57;8.68;;;4.75;;
27265;SDS011;14766;51.380;13.762;2024-01-15T11:28:02;8.65;;;4.60;;
27265;SDS011;14766;51.380;13.762;2024-01-15T11:30:25;10.10;;;3.67;;
27265;SDS011;14766;51.380;13.762;2024-01-15T11:32:53;10.95;;;4.05;;
27265;SDS011;14766;51.380;13.762;2024-01-15T11:35:20;11.27;;;4.38;;
27265;SDS011;14766;51.380;13.762;2024-01-15T11:40:22;9.65;;;4.28;;
27265;SDS011;14766;51.380;13.762;2024-01-15T11:43:05;9.38;;;3.92;;
27265;SDS011;14766;51.380;13.762;2024-01-15T11:45:36;9.40;;;3.55;;
27265;SDS011;14766;51.380;13.762;2024-01-15T11:50:42;8.20;;;3.97;;
27265;SDS011;14766;51.380;13.762;2024-01-15T11:53:26;10.60;;;4.78;;
27265;SDS011;14766;51.380;13.762;2024-01-15T11:56:05;9.02;;;4.40;;
27265;SDS011;14766;51.380;13.762;2024-01-15T11:58:40;9.55;;;4.70;;
27265;SDS011;14766;51.380;13.762;2024-01-15T12:01:08;9.15;;;4.05;;
27265;SDS011;14766;51.380;13.762;2024-01-15T12:03:39;8.93;;;4.53;;
27265;SDS011;14766;51.380;13.762;2024-01-15T12:06:06;8.07;;;4.18;;
27265;SDS011;14766;51.380;13.762;2024-01-15T12:08:34;11.55;;;5.38;;
27265;SDS011;14766;51.380;13.762;2024-01-15T12:11:06;9.65;;;3.90;;
27265;SDS011;14766;51.380;13.762;2024-01-15T12:13:36;9.27;;;4.07;;
27265;SDS011;14766;51.380;13.762;2024-01-15T12:16:03;8.18;;;4.25;;
27265;SDS011;14766;51.380;13.762;2024-01-15T12:18:33;8.95;;;4.35;;
27265;SDS011;14766;51.380;13.762;2024-01-15T12:21:00;11.93;;;4.75;;
27265;SDS011;14766;51.380;13.762;2024-01-15T12:23:27;8.98;;;4.93;;
27265;SDS011;14766;51.380;13.762;2024-01-15T12:25:59;9.40;;;5.57;;
27265;SDS011;14766;51.380;13.762;2024-01-15T12:28:27;8.07;;;4.65;;
27265;SDS011;14766;51.380;13.762;2024-01-15T12:30:55;14.45;;;7.57;;
27265;SDS011;14766;51.380;13.762;2024-01-15T12:33:22;11.43;;;5.57;;
27265;SDS011;14766;51.380;13.762;2024-01-15T12:35:52;14.43;;;6.03;;
27265;SDS011;14766;51.380;13.762;2024-01-15T12:38:19;11.43;;;6.15;;
27265;SDS011;14766;51.380;13.762;2024-01-15T12:40:47;8.57;;;4.65;;
27265;SDS011;14766;51.380;13.762;2024-01-15T12:43:15;14.38;;;6.15;;
27265;SDS011;14766;51.380;13.762;2024-01-15T12:45:42;13.52;;;6.03;;
27265;SDS011;14766;51.380;13.762;2024-01-15T12:48:09;11.68;;;4.82;;
27265;SDS011;14766;51.380;13.762;2024-01-15T12:50:37;10.02;;;4.88;;
27265;SDS011;14766;51.380;13.762;2024-01-15T12:53:04;7.30;;;4.25;;
27265;SDS011;14766;51.380;13.762;2024-01-15T12:55:31;10.95;;;4.68;;
27265;SDS011;14766;51.380;13.762;2024-01-15T12:57:58;7.47;;;4.00;;
27265;SDS011;14766;51.380;13.762;2024-01-15T13:00:25;10.02;;;4.68;;
27265;SDS011;14766;51.380;13.762;2024-01-15T13:02:54;9.43;;;4.63;;
27265;SDS011;14766;51.380;13.762;2024-01-15T13:05:24;9.18;;;4.15;;
27265;SDS011;14766;51.380;13.762;2024-01-15T13:07:54;6.88;;;3.80;;
27265;SDS011;14766;51.380;13.762;2024-01-15T13:10:24;9.02;;;4.18;;
27265;SDS011;14766;51.380;13.762;2024-01-15T13:12:52;8.60;;;3.92;;
27265;SDS011;14766;51.380;13.762;2024-01-15T13:15:19;9.70;;;4.40;;
27265;SDS011;14766;51.380;13.762;2024-01-15T13:17:46;6.18;;;4.13;;
27265;SDS011;14766;51.380;13.762;2024-01-15T13:20:14;7.85;;;4.18;;
27265;SDS011;14766;51.380;13.762;2024-01-15T13:22:42;8.93;;;3.83;;
27265;SDS011;14766;51.380;13.762;2024-01-15T13:25:11;4.90;;;3.20;;
27265;SDS011;14766;51.380;13.762;2024-01-15T13:27:38;5.80;;;3.45;;
27265;SDS011;14766;51.380;13.762;2024-01-15T13:30:08;6.78;;;3.42;;
27265;SDS011;14766;51.380;13.762;2024-01-15T13:32:35;6.35;;;3.42;;
27265;SDS011;14766;51.380;13.762;2024-01-15T13:35:03;6.25;;;3.35;;
27265;SDS011;14766;51.380;13.762;2024-01-15T13:37:33;10.32;;;3.60;;
27265;SDS011;14766;51.380;13.762;2024-01-15T13:40:02;7.00;;;3.70;;
27265;SDS011;14766;51.380;13.762;2024-01-15T13:42:30;9.55;;;3.78;;
27265;SDS011;14766;51.380;13.762;2024-01-15T13:44:57;5.97;;;3.33;;
27265;SDS011;14766;51.380;13.762;2024-01-15T13:47:25;6.80;;;3.67;;
27265;SDS011;14766;51.380;13.762;2024-01-15T13:49:52;9.55;;;4.60;;
27265;SDS011;14766;51.380;13.762;2024-01-15T13:52:20;9.70;;;4.35;;
27265;SDS011;14766;51.380;13.762;2024-01-15T13:54:49;7.55;;;4.28;;
27265;SDS011;14766;51.380;13.762;2024-01-15T13:57:17;9.98;;;4.45;;
27265;SDS011;14766;51.380;13.762;2024-01-15T13:59:46;5.63;;;3.78;;
27265;SDS011;14766;51.380;13.762;2024-01-15T14:02:14;7.55;;;3.95;;
27265;SDS011;14766;51.380;13.762;2024-01-15T14:04:46;7.50;;;3.85;;
27265;SDS011;14766;51.380;13.762;2024-01-15T14:07:16;9.38;;;4.10;;
27265;SDS011;14766;51.380;13.762;2024-01-15T14:09:45;11.23;;;4.40;;
27265;SDS011;14766;51.380;13.762;2024-01-15T14:12:13;8.68;;;4.10;;
27265;SDS011;14766;51.380;13.762;2024-01-15T14:14:40;6.78;;;3.88;;
27265;SDS011;14766;51.380;13.762;2024-01-15T14:17:08;8.80;;;3.90;;
27265;SDS011;14766;51.380;13.762;2024-01-15T14:19:35;8.18;;;3.90;;
27265;SDS011;14766;51.380;13.762;2024-01-15T14:22:03;8.65;;;4.03;;
27265;SDS011;14766;51.380;13.762;2024-01-15T14:24:30;7.35;;;3.50;;
27265;SDS011;14766;51.380;13.762;2024-01-15T14:26:57;8.32;;;3.80;;
27265;SDS011;14766;51.380;13.762;2024-01-15T14:29:25;6.15;;;3.60;;
27265;SDS011;14766;51.380;13.762;2024-01-15T14:31:53;6.45;;;3.58;;
27265;SDS011;14766;51.380;13.762;2024-01-15T14:34:20;6.82;;;3.90;;
27265;SDS011;14766;51.380;13.762;2024-01-15T14:36:51;6.07;;;3.72;;